createdAt,value
2022-11-09T00:01:56.493Z,9.88
2022-11-09T00:04:41.708Z,9.98
2022-11-09T00:07:30.674Z,13.93
2022-11-09T00:10:16.311Z,9.52
2022-11-09T00:13:02.352Z,11.38
2022-11-09T00:15:48.039Z,10.30
2022-11-09T00:18:35.415Z,11.25
2022-11-09T00:21:23.332Z,9.55
2022-11-09T00:24:08.682Z,12.25
2022-11-09T00:26:54.114Z,10.98
2022-11-09T00:29:39.819Z,9.35
2022-11-09T00:32:27.805Z,9.88
2022-11-09T00:35:13.349Z,10.90
2022-11-09T00:37:59.106Z,9.32
2022-11-09T00:40:44.353Z,9.10
2022-11-09T00:43:30.176Z,9.35
2022-11-09T00:46:16.274Z,8.98
2022-11-09T00:49:02.083Z,8.93
2022-11-09T00:51:47.807Z,8.68
2022-11-09T00:54:33.350Z,9.35
2022-11-09T00:57:18.840Z,8.52
2022-11-09T01:00:04.732Z,9.30
2022-11-09T01:02:51.238Z,10.98
2022-11-09T01:05:39.522Z,12.60
2022-11-09T01:08:25.915Z,12.05
2022-11-09T01:11:12.322Z,12.63
2022-11-09T01:13:59.581Z,9.18
2022-11-09T01:16:45.155Z,10.57
2022-11-09T01:19:30.705Z,12.05
2022-11-09T01:22:17.179Z,9.65
2022-11-09T01:25:02.496Z,15.77
2022-11-09T01:27:47.985Z,11.30
2022-11-09T01:30:43.386Z,11.18
2022-11-09T01:33:28.995Z,10.27
2022-11-09T01:36:24.779Z,8.52
2022-11-09T01:39:10.036Z,10.05
2022-11-09T01:41:55.698Z,12.77
2022-11-09T01:44:41.256Z,12.40
2022-11-09T01:47:27.110Z,11.85
2022-11-09T01:50:15.815Z,10.20
2022-11-09T01:53:03.666Z,9.93
2022-11-09T01:55:52.890Z,10.38
2022-11-09T01:58:44.152Z,10.15
2022-11-09T02:01:31.061Z,11.73
2022-11-09T02:04:24.845Z,9.93
2022-11-09T02:07:10.451Z,10.27
2022-11-09T02:10:07.134Z,12.27
2022-11-09T02:12:53.422Z,14.00
2022-11-09T02:15:44.307Z,12.13
2022-11-09T02:18:32.862Z,11.35
2022-11-09T02:21:18.998Z,14.20
2022-11-09T02:24:04.791Z,12.95
2022-11-09T02:26:52.402Z,10.93
2022-11-09T02:29:41.193Z,11.93
2022-11-09T02:32:29.379Z,10.80
2022-11-09T02:35:14.734Z,11.48
2022-11-09T02:38:00.346Z,14.00
2022-11-09T02:40:51.493Z,10.73
2022-11-09T02:43:37.325Z,9.75
2022-11-09T02:46:34.978Z,11.98
2022-11-09T02:49:20.460Z,10.88
2022-11-09T02:52:06.258Z,10.10
2022-11-09T02:54:51.527Z,9.07
2022-11-09T02:57:37.203Z,9.88
2022-11-09T03:00:22.494Z,8.38
2022-11-09T03:03:08.341Z,7.60
2022-11-09T03:05:53.629Z,9.52
2022-11-09T03:08:39.362Z,7.38
2022-11-09T03:11:24.908Z,8.30
2022-11-09T03:14:11.287Z,7.70
2022-11-09T03:16:57.337Z,9.23
2022-11-09T03:19:43.541Z,6.00
2022-11-09T03:22:29.193Z,6.05
2022-11-09T03:25:14.531Z,6.18
2022-11-09T03:28:02.399Z,7.18
2022-11-09T03:30:47.668Z,8.18
2022-11-09T03:33:33.474Z,9.10
2022-11-09T03:36:18.786Z,8.68
2022-11-09T03:39:04.380Z,9.65
2022-11-09T03:41:50.218Z,8.07
2022-11-09T03:44:35.708Z,11.23
2022-11-09T03:47:20.968Z,8.85
2022-11-09T03:50:06.889Z,8.65
2022-11-09T03:52:52.648Z,10.15
2022-11-09T03:55:39.133Z,13.52
2022-11-09T03:58:24.801Z,10.10
2022-11-09T04:01:11.025Z,9.38
2022-11-09T04:03:56.893Z,9.45
2022-11-09T04:06:42.815Z,8.85
2022-11-09T04:09:28.433Z,11.23
2022-11-09T04:12:14.136Z,8.27
2022-11-09T04:14:59.553Z,10.70
2022-11-09T04:17:45.334Z,8.77
2022-11-09T04:20:31.596Z,8.50
2022-11-09T04:23:17.718Z,8.88
2022-11-09T04:26:03.535Z,6.60
2022-11-09T04:28:48.949Z,7.28
2022-11-09T04:31:34.623Z,10.68
2022-11-09T04:34:20.290Z,8.18
2022-11-09T04:37:05.980Z,8.30
2022-11-09T04:39:51.329Z,7.13
2022-11-09T04:42:36.897Z,11.02
2022-11-09T04:45:22.710Z,8.13
2022-11-09T04:48:09.730Z,7.63
2022-11-09T04:51:01.051Z,11.18
2022-11-09T04:53:46.712Z,8.50
2022-11-09T04:56:32.539Z,7.78
2022-11-09T04:59:18.097Z,6.70
2022-11-09T05:02:03.591Z,9.25
2022-11-09T05:04:49.498Z,9.85
2022-11-09T05:07:34.985Z,7.68
2022-11-09T05:10:20.551Z,6.95
2022-11-09T05:13:08.564Z,6.40
2022-11-09T05:15:53.779Z,7.10
2022-11-09T05:18:39.520Z,8.27
2022-11-09T05:21:25.053Z,7.80
2022-11-09T05:24:10.280Z,8.00
2022-11-09T05:26:57.089Z,8.63
2022-11-09T05:29:42.622Z,8.45
2022-11-09T05:32:28.311Z,7.65
2022-11-09T05:35:14.276Z,6.38
2022-11-09T05:37:59.550Z,6.63
2022-11-09T05:40:47.563Z,4.53
2022-11-09T05:43:33.487Z,6.40
2022-11-09T05:46:19.756Z,6.00
2022-11-09T05:49:05.066Z,5.07
2022-11-09T05:51:50.869Z,5.30
2022-11-09T05:54:36.500Z,5.65
2022-11-09T05:57:22.068Z,5.88
2022-11-09T06:00:10.932Z,6.88
2022-11-09T06:03:23.494Z,8.70
2022-11-09T06:06:10.777Z,5.47
2022-11-09T06:08:56.516Z,5.97
2022-11-09T06:11:42.424Z,5.60
2022-11-09T06:14:28.008Z,4.85
2022-11-09T06:17:13.556Z,8.32
2022-11-09T06:19:58.777Z,9.80
2022-11-09T06:22:44.586Z,10.70
2022-11-09T06:25:31.994Z,6.70
2022-11-09T06:28:17.773Z,8.73
2022-11-09T06:31:05.784Z,8.68
2022-11-09T06:33:51.639Z,8.60
2022-11-09T06:36:37.177Z,12.10
2022-11-09T06:39:23.408Z,10.10
2022-11-09T06:42:08.814Z,14.73
2022-11-09T06:44:54.125Z,10.60
2022-11-09T06:47:39.806Z,8.57
2022-11-09T06:50:27.019Z,8.63
2022-11-09T06:53:15.151Z,9.40
2022-11-09T06:56:02.734Z,9.35
2022-11-09T06:58:48.441Z,9.88
2022-11-09T07:01:34.026Z,8.68
2022-11-09T07:04:19.667Z,8.65
2022-11-09T07:07:05.155Z,7.95
2022-11-09T07:09:50.485Z,6.10
2022-11-09T07:12:36.207Z,7.82
2022-11-09T07:15:21.684Z,8.18
2022-11-09T07:18:10.823Z,7.85
2022-11-09T07:20:56.291Z,6.25
2022-11-09T07:23:42.489Z,5.90
2022-11-09T07:26:28.195Z,8.00
2022-11-09T07:29:13.836Z,6.05
2022-11-09T07:31:59.323Z,5.57
2022-11-09T07:34:46.575Z,7.45
2022-11-09T07:37:32.787Z,6.72
2022-11-09T07:40:19.047Z,7.90
2022-11-09T07:43:06.228Z,9.43
2022-11-09T07:45:51.638Z,9.48
2022-11-09T07:48:37.253Z,10.80
2022-11-09T07:51:25.880Z,8.68
2022-11-09T07:54:11.958Z,6.25
2022-11-09T07:56:57.604Z,6.68
2022-11-09T07:59:42.984Z,5.75
2022-11-09T08:02:28.431Z,9.63
2022-11-09T08:05:14.127Z,7.40
2022-11-09T08:08:01.813Z,7.13
2022-11-09T08:10:51.507Z,5.68
2022-11-09T08:13:37.043Z,5.93
2022-11-09T08:16:23.350Z,5.70
2022-11-09T08:19:10.707Z,4.78
2022-11-09T08:21:58.062Z,4.85
2022-11-09T08:24:43.752Z,4.55
2022-11-09T08:27:30.935Z,4.63
2022-11-09T08:30:19.624Z,3.30
2022-11-09T08:33:05.369Z,3.85
2022-11-09T08:35:53.421Z,10.35
2022-11-09T08:38:39.938Z,8.00
2022-11-09T08:41:25.512Z,5.95
2022-11-09T08:44:11.069Z,4.85
2022-11-09T08:46:56.642Z,2.45
2022-11-09T08:49:44.293Z,2.88
2022-11-09T08:52:29.772Z,4.32
2022-11-09T08:55:15.251Z,3.85
2022-11-09T08:58:02.701Z,5.05
2022-11-09T09:00:48.896Z,3.20
2022-11-09T09:03:34.522Z,4.03
2022-11-09T09:06:20.010Z,2.92
2022-11-09T09:09:05.532Z,2.50
2022-11-09T09:11:50.996Z,3.33
2022-11-09T09:14:36.929Z,2.33
2022-11-09T09:17:23.236Z,4.32
2022-11-09T09:20:09.106Z,4.20
2022-11-09T09:22:57.764Z,4.95
2022-11-09T09:25:44.162Z,5.28
2022-11-09T09:28:29.780Z,7.40
2022-11-09T09:31:18.371Z,3.30
2022-11-09T09:34:04.349Z,4.25
2022-11-09T09:36:52.049Z,5.20
2022-11-09T09:39:37.873Z,3.92
2022-11-09T09:42:34.030Z,4.28
2022-11-09T09:45:23.920Z,5.25
2022-11-09T09:48:50.828Z,4.07
2022-11-09T09:52:00.328Z,2.58
2022-11-09T09:55:10.292Z,4.60
2022-11-09T09:58:01.091Z,4.45
2022-11-09T10:00:48.220Z,3.28
2022-11-09T10:03:34.115Z,4.55
2022-11-09T10:06:44.496Z,3.20
2022-11-09T10:09:53.864Z,3.13
2022-11-09T10:12:53.119Z,3.33
2022-11-09T10:15:49.551Z,3.17
2022-11-09T10:18:53.285Z,3.92
2022-11-09T10:21:48.764Z,3.42
2022-11-09T10:25:27.365Z,2.05
2022-11-09T10:28:17.562Z,6.88
2022-11-09T10:31:03.988Z,3.72
2022-11-09T10:34:16.660Z,3.67
2022-11-09T10:37:15.389Z,3.05
2022-11-09T10:40:09.418Z,3.88
2022-11-09T10:42:58.878Z,4.85
2022-11-09T10:45:46.799Z,4.25
2022-11-09T10:48:36.273Z,4.35
2022-11-09T10:51:42.835Z,3.22
2022-11-09T10:54:38.132Z,2.78
2022-11-09T10:57:24.833Z,2.65
2022-11-09T11:00:19.344Z,5.70
2022-11-09T11:03:18.084Z,4.18
2022-11-09T11:06:15.508Z,3.97
2022-11-09T11:09:06.780Z,3.90
2022-11-09T11:12:16.584Z,4.28
2022-11-09T11:15:02.127Z,3.40
2022-11-09T11:17:47.844Z,2.38
2022-11-09T11:20:35.809Z,3.47
2022-11-09T11:23:26.353Z,3.00
2022-11-09T11:26:27.411Z,3.88
2022-11-09T11:29:29.338Z,4.47
2022-11-09T11:32:17.713Z,4.43
2022-11-09T11:35:14.646Z,4.10
2022-11-09T11:38:22.276Z,4.38
2022-11-09T11:41:48.438Z,4.47
2022-11-09T11:45:18.956Z,3.45
2022-11-09T11:48:15.458Z,3.95
2022-11-09T11:51:09.424Z,3.17
2022-11-09T11:54:03.466Z,3.08
2022-11-09T11:57:08.038Z,4.68
2022-11-09T12:00:01.195Z,2.85
2022-11-09T12:03:10.701Z,3.50
2022-11-09T12:06:14.854Z,6.13
2022-11-09T12:09:18.823Z,2.88
2022-11-09T12:12:39.247Z,2.10
2022-11-09T12:15:34.212Z,3.03
2022-11-09T12:18:57.032Z,3.00
2022-11-09T12:22:08.703Z,2.38
2022-11-09T12:25:19.354Z,2.30
2022-11-09T12:28:16.919Z,3.33
2022-11-09T12:31:46.585Z,3.15
2022-11-09T12:34:58.148Z,1.60
2022-11-09T12:38:19.211Z,3.17
2022-11-09T12:41:10.931Z,2.05
2022-11-09T12:44:19.150Z,1.63
2022-11-09T12:47:15.926Z,1.67
2022-11-09T12:50:01.576Z,2.30
2022-11-09T12:52:52.257Z,1.00
2022-11-09T12:55:41.070Z,2.15
2022-11-09T12:58:29.322Z,1.42
2022-11-09T13:01:34.715Z,1.63
2022-11-09T13:04:21.984Z,1.50
2022-11-09T13:07:07.692Z,2.42
2022-11-09T13:09:58.890Z,1.85
2022-11-09T13:12:44.205Z,2.38
2022-11-09T13:15:33.585Z,1.23
2022-11-09T13:18:45.425Z,2.40
2022-11-09T13:21:33.468Z,6.43
2022-11-09T13:24:31.555Z,4.13
2022-11-09T13:27:37.603Z,5.45
2022-11-09T13:30:28.686Z,8.93
2022-11-09T13:33:24.641Z,9.55
2022-11-09T13:36:10.336Z,2.47
2022-11-09T13:39:26.702Z,1.67
2022-11-09T13:42:36.672Z,1.20
2022-11-09T13:45:21.866Z,1.23
2022-11-09T13:48:22.239Z,2.45
2022-11-09T13:51:09.997Z,3.30
2022-11-09T13:54:01.210Z,4.03
2022-11-09T13:56:48.481Z,3.97
2022-11-09T13:59:39.479Z,2.30
2022-11-09T14:02:26.624Z,1.75
2022-11-09T14:05:37.643Z,3.13
2022-11-09T14:08:27.309Z,1.70
2022-11-09T14:11:34.182Z,1.55
2022-11-09T14:14:31.773Z,3.05
2022-11-09T14:17:49.423Z,1.65
2022-11-09T14:21:13.450Z,4.07
2022-11-09T14:24:14.035Z,2.65
2022-11-09T14:27:08.823Z,3.17
2022-11-09T14:29:57.116Z,2.80
2022-11-09T14:32:49.611Z,4.50
2022-11-09T14:35:35.951Z,4.22
2022-11-09T14:38:47.480Z,3.85
2022-11-09T14:41:33.202Z,6.90
2022-11-09T14:44:42.485Z,4.85
2022-11-09T14:47:30.096Z,5.43
2022-11-09T14:50:45.142Z,6.80
2022-11-09T14:53:38.733Z,9.55
2022-11-09T14:56:25.101Z,14.70
2022-11-09T14:59:34.274Z,18.85
2022-11-09T15:02:22.298Z,17.13
2022-11-09T15:05:27.842Z,13.80
2022-11-09T15:08:19.036Z,14.48
2022-11-09T15:11:05.084Z,15.60
2022-11-09T15:13:50.571Z,13.77
2022-11-09T15:16:36.471Z,9.73
2022-11-09T15:19:32.513Z,7.10
2022-11-09T15:22:40.099Z,20.10
2022-11-09T15:25:44.622Z,20.73
2022-11-09T15:28:31.645Z,16.83
2022-11-09T15:31:19.562Z,14.30
2022-11-09T15:34:24.293Z,11.80
2022-11-09T15:37:22.476Z,7.97
2022-11-09T15:40:13.138Z,6.78
2022-11-09T15:42:58.551Z,5.22
2022-11-09T15:45:43.960Z,5.80
2022-11-09T15:48:29.982Z,5.70
2022-11-09T15:51:15.995Z,4.22
2022-11-09T15:54:01.331Z,3.53
2022-11-09T15:56:47.233Z,3.15
2022-11-09T15:59:33.284Z,3.58
2022-11-09T16:02:19.176Z,2.63
2022-11-09T16:05:05.144Z,2.67
2022-11-09T16:07:52.804Z,3.60
2022-11-09T16:10:40.233Z,3.13
2022-11-09T16:13:25.694Z,2.38
2022-11-09T16:16:14.490Z,4.15
2022-11-09T16:19:00.036Z,4.00
2022-11-09T16:21:45.281Z,2.83
2022-11-09T16:24:30.583Z,6.65
2022-11-09T16:27:47.982Z,5.53
2022-11-09T16:30:22.326Z,2.90
2022-11-09T16:33:08.165Z,3.08
2022-11-09T16:35:55.732Z,4.40
2022-11-09T16:38:47.719Z,3.70
2022-11-09T16:41:33.146Z,4.68
2022-11-09T16:44:23.879Z,3.38
2022-11-09T16:47:12.614Z,5.32
2022-11-09T16:49:58.447Z,4.85
2022-11-09T16:52:44.759Z,2.92
2022-11-09T16:55:30.144Z,2.67
2022-11-09T16:58:16.013Z,3.83
2022-11-09T17:01:11.613Z,5.05
2022-11-09T17:03:58.259Z,4.15
2022-11-09T17:06:43.908Z,6.68
2022-11-09T17:09:34.049Z,5.13
2022-11-09T17:12:19.432Z,5.28
2022-11-09T17:15:05.302Z,8.18
2022-11-09T17:17:50.976Z,5.30
2022-11-09T17:20:49.978Z,6.00
2022-11-09T17:23:35.629Z,4.35
2022-11-09T17:26:22.955Z,5.15
2022-11-09T17:29:08.422Z,6.40
2022-11-09T17:31:54.179Z,5.82
2022-11-09T17:34:40.208Z,6.97
2022-11-09T17:37:26.322Z,3.53
2022-11-09T17:40:11.912Z,5.95
2022-11-09T17:42:57.234Z,7.30
2022-11-09T17:45:43.215Z,3.63
2022-11-09T17:48:28.894Z,4.85
2022-11-09T17:51:16.901Z,5.28
2022-11-09T17:54:04.117Z,4.40
2022-11-09T17:56:50.027Z,5.45
2022-11-09T17:59:35.499Z,3.95
2022-11-09T18:02:21.387Z,6.55
2022-11-09T18:05:06.975Z,5.72
2022-11-09T18:07:52.655Z,5.68
2022-11-09T18:10:40.915Z,5.07
2022-11-09T18:13:26.192Z,4.57
2022-11-09T18:16:17.662Z,5.30
2022-11-09T18:19:04.581Z,7.78
2022-11-09T18:21:50.199Z,6.00
2022-11-09T18:24:36.601Z,6.80
2022-11-09T18:27:26.081Z,8.02
2022-11-09T18:30:17.086Z,4.65
2022-11-09T18:33:02.477Z,5.43
2022-11-09T18:36:02.505Z,5.25
2022-11-09T18:38:51.223Z,5.18
2022-11-09T18:41:36.906Z,4.93
2022-11-09T18:44:22.499Z,5.35
2022-11-09T18:47:09.750Z,5.22
2022-11-09T18:49:55.566Z,4.72
2022-11-09T18:52:41.089Z,3.92
2022-11-09T18:55:26.636Z,4.32
2022-11-09T18:58:12.111Z,6.47
2022-11-09T19:01:03.986Z,4.28
2022-11-09T19:03:53.852Z,4.45
2022-11-09T19:06:42.393Z,6.07
2022-11-09T19:09:31.683Z,5.40
2022-11-09T19:12:17.392Z,4.97
2022-11-09T19:15:02.909Z,4.90
2022-11-09T19:17:48.468Z,8.00
2022-11-09T19:20:34.007Z,5.75
2022-11-09T19:23:19.501Z,9.18
2022-11-09T19:26:05.116Z,6.57
2022-11-09T19:28:50.766Z,6.03
2022-11-09T19:31:36.898Z,5.85
2022-11-09T19:34:22.586Z,5.43
2022-11-09T19:37:09.195Z,3.45
2022-11-09T19:39:55.053Z,3.22
2022-11-09T19:42:41.925Z,3.03
2022-11-09T19:45:28.100Z,3.55
2022-11-09T19:48:13.931Z,3.50
2022-11-09T19:50:59.676Z,4.35
2022-11-09T19:53:53.202Z,6.40
2022-11-09T19:56:38.843Z,6.75
2022-11-09T19:59:24.763Z,5.65
2022-11-09T20:02:10.773Z,3.10
2022-11-09T20:04:56.356Z,3.35
2022-11-09T20:07:42.160Z,3.85
2022-11-09T20:10:27.862Z,3.60
2022-11-09T20:13:13.486Z,5.97
2022-11-09T20:16:12.167Z,5.28
2022-11-09T20:18:57.931Z,3.60
2022-11-09T20:21:44.801Z,3.50
2022-11-09T20:24:30.462Z,4.22
2022-11-09T20:27:16.058Z,2.30
2022-11-09T20:30:01.718Z,2.70
2022-11-09T20:32:47.113Z,2.85
2022-11-09T20:35:33.400Z,2.58
2022-11-09T20:38:22.400Z,2.47
2022-11-09T20:41:10.629Z,3.55
2022-11-09T20:43:56.548Z,2.45
2022-11-09T20:46:41.820Z,2.33
2022-11-09T20:49:27.715Z,2.65
2022-11-09T20:52:13.900Z,3.03
2022-11-09T20:54:59.604Z,1.48
2022-11-09T20:57:45.386Z,3.95
2022-11-09T21:00:32.112Z,2.83
2022-11-09T21:03:17.438Z,2.95
2022-11-09T21:06:06.094Z,1.58
2022-11-09T21:08:53.752Z,2.13
2022-11-09T21:11:59.594Z,2.60
2022-11-09T21:14:45.428Z,4.78
2022-11-09T21:17:30.876Z,6.22
2022-11-09T21:20:16.882Z,3.95
2022-11-09T21:23:14.129Z,5.05
2022-11-09T21:26:18.797Z,8.05
2022-11-09T21:29:24.408Z,9.30
2022-11-09T21:32:11.144Z,9.75
2022-11-09T21:34:56.690Z,9.90
2022-11-09T21:37:42.357Z,9.63
2022-11-09T21:40:28.880Z,11.18
2022-11-09T21:43:15.125Z,11.05
2022-11-09T21:46:00.794Z,10.85
2022-11-09T21:48:46.020Z,8.93
2022-11-09T21:51:33.284Z,8.02
2022-11-09T21:54:19.478Z,6.05
2022-11-09T21:57:05.335Z,6.90
2022-11-09T21:59:50.852Z,7.47
2022-11-09T22:02:36.368Z,7.28
2022-11-09T22:05:22.971Z,5.28
2022-11-09T22:08:08.679Z,2.95
2022-11-09T22:11:06.701Z,2.60
2022-11-09T22:14:10.462Z,2.53
2022-11-09T22:16:55.853Z,2.90
2022-11-09T22:20:00.687Z,2.78
2022-11-09T22:22:46.164Z,2.03
2022-11-09T22:25:31.811Z,2.78
2022-11-09T22:28:17.491Z,2.88
2022-11-09T22:31:05.081Z,4.18
2022-11-09T22:33:51.194Z,2.70
2022-11-09T22:36:36.577Z,2.25
2022-11-09T22:39:22.872Z,2.50
2022-11-09T22:42:09.155Z,2.28
2022-11-09T22:44:54.779Z,1.63
2022-11-09T22:47:40.356Z,3.85
2022-11-09T22:50:26.076Z,2.42
2022-11-09T22:53:11.803Z,4.10
2022-11-09T22:55:59.230Z,3.65
2022-11-09T22:58:45.288Z,3.03
2022-11-09T23:01:30.862Z,3.42
2022-11-09T23:04:16.536Z,3.72
2022-11-09T23:07:02.380Z,2.30
2022-11-09T23:09:47.780Z,4.32
2022-11-09T23:12:34.323Z,2.92
2022-11-09T23:15:20.196Z,2.72
2022-11-09T23:18:24.270Z,6.45
2022-11-09T23:21:09.922Z,2.63
2022-11-09T23:23:58.266Z,3.13
2022-11-09T23:26:43.932Z,2.17
2022-11-09T23:29:29.738Z,3.47
2022-11-09T23:32:15.254Z,2.88
2022-11-09T23:35:00.734Z,2.55
2022-11-09T23:37:46.791Z,7.05
2022-11-09T23:40:38.408Z,2.70
2022-11-09T23:43:24.320Z,5.95
2022-11-09T23:46:13.424Z,2.60
2022-11-09T23:48:59.446Z,2.63
2022-11-09T23:51:45.148Z,5.72
2022-11-09T23:54:30.700Z,3.20
2022-11-09T23:57:16.131Z,5.15
